sensor_id;sensor_type;location;lat;lon;timestamp;pressure;altitude;pressure_sealevel;temperature;humidity
65013;BME280;51715;39.432;-77.518;2023-08-01T00:02:05;99651.94;;;30.15;24.05
65013;BME280;51715;39.432;-77.518;2023-08-01T00:04:34;99654.19;;;30.00;24.48
65013;BME280;51715;39.432;-77.518;2023-08-01T00:07:03;99661.88;;;29.86;24.79
65013;BME280;51715;39.432;-77.518;2023-08-01T00:09:31;99659.22;;;29.70;25.30
65013;BME280;51715;39.432;-77.518;2023-08-01T00:11:59;99659.65;;;29.77;25.36
65013;BME280;51715;39.432;-77.518;2023-08-01T00:14:27;99660.23;;;29.83;25.12
65013;BME280;51715;39.432;-77.518;2023-08-01T00:16:56;99663.11;;;29.64;25.60
65013;BME280;51715;39.432;-77.518;2023-08-01T00:19:24;99665.44;;;29.41;26.25
65013;BME280;51715;39.432;-77.518;2023-08-01T00:21:52;99670.46;;;29.17;26.63
65013;BME280;51715;39.432;-77.518;2023-08-01T00:24:21;99675.59;;;28.70;27.07
65013;BME280;51715;39.432;-77.518;2023-08-01T00:26:50;99676.37;;;28.70;27.31
65013;BME280;51715;39.432;-77.518;2023-08-01T00:29:18;99679.11;;;28.49;27.68
65013;BME280;51715;39.432;-77.518;2023-08-01T00:31:47;99684.98;;;28.26;28.21
65013;BME280;51715;39.432;-77.518;2023-08-01T00:34:16;99684.43;;;28.29;28.29
65013;BME280;51715;39.432;-77.518;2023-08-01T00:36:43;99681.47;;;28.09;28.67
65013;BME280;51715;39.432;-77.518;2023-08-01T00:39:13;99685.61;;;27.90;28.92
65013;BME280;51715;39.432;-77.518;2023-08-01T00:41:42;99689.65;;;28.02;29.43
65013;BME280;51715;39.432;-77.518;2023-08-01T00:44:11;99691.44;;;27.85;29.35
65013;BME280;51715;39.432;-77.518;2023-08-01T00:46:39;99692.69;;;27.72;29.48
65013;BME280;51715;39.432;-77.518;2023-08-01T00:49:08;99697.67;;;27.45;30.01
65013;BME280;51715;39.432;-77.518;2023-08-01T00:51:38;99698.03;;;27.47;30.20
65013;BME280;51715;39.432;-77.518;2023-08-01T00:54:07;99702.35;;;27.54;30.10
65013;BME280;51715;39.432;-77.518;2023-08-01T00:56:36;99705.59;;;27.36;30.61
65013;BME280;51715;39.432;-77.518;2023-08-01T00:59:05;99706.66;;;27.18;31.28
65013;BME280;51715;39.432;-77.518;2023-08-01T01:01:33;99710.22;;;26.72;31.36
65013;BME280;51715;39.432;-77.518;2023-08-01T01:04:02;99711.39;;;26.75;31.46
65013;BME280;51715;39.432;-77.518;2023-08-01T01:06:34;99720.19;;;26.93;31.24
65013;BME280;51715;39.432;-77.518;2023-08-01T01:09:15;99723.90;;;26.58;31.07
65013;BME280;51715;39.432;-77.518;2023-08-01T01:11:44;99728.41;;;26.50;30.88
65013;BME280;51715;39.432;-77.518;2023-08-01T01:14:12;99729.36;;;26.34;31.12
65013;BME280;51715;39.432;-77.518;2023-08-01T01:16:40;99731.94;;;26.18;31.35
65013;BME280;51715;39.432;-77.518;2023-08-01T01:19:09;99736.06;;;26.10;32.01
65013;BME280;51715;39.432;-77.518;2023-08-01T01:21:39;99740.07;;;26.52;31.99
65013;BME280;51715;39.432;-77.518;2023-08-01T01:24:10;99745.07;;;26.21;32.07
65013;BME280;51715;39.432;-77.518;2023-08-01T01:26:41;99748.46;;;26.36;32.14
65013;BME280;51715;39.432;-77.518;2023-08-01T01:29:10;99750.84;;;26.03;32.37
65013;BME280;51715;39.432;-77.518;2023-08-01T01:31:39;99753.69;;;25.96;32.56
65013;BME280;51715;39.432;-77.518;2023-08-01T01:34:08;99756.87;;;25.82;32.82
65013;BME280;51715;39.432;-77.518;2023-08-01T01:36:36;99759.95;;;25.46;32.69
65013;BME280;51715;39.432;-77.518;2023-08-01T01:39:05;99768.26;;;25.86;32.86
65013;BME280;51715;39.432;-77.518;2023-08-01T01:41:34;99770.96;;;25.70;33.09
65013;BME280;51715;39.432;-77.518;2023-08-01T01:44:03;99772.87;;;25.46;33.27
65013;BME280;51715;39.432;-77.518;2023-08-01T01:46:33;99779.01;;;25.38;33.26
65013;BME280;51715;39.432;-77.518;2023-08-01T01:49:06;99784.44;;;25.33;33.40
65013;BME280;51715;39.432;-77.518;2023-08-01T01:51:34;99791.01;;;25.26;33.59
65013;BME280;51715;39.432;-77.518;2023-08-01T01:54:03;99792.93;;;25.18;33.79
65013;BME280;51715;39.432;-77.518;2023-08-01T01:56:32;99794.64;;;25.10;33.82
65013;BME280;51715;39.432;-77.518;2023-08-01T01:59:00;99793.44;;;25.31;33.88
65013;BME280;51715;39.432;-77.518;2023-08-01T02:01:30;99799.32;;;24.97;34.23
65013;BME280;51715;39.432;-77.518;2023-08-01T02:03:58;99801.74;;;24.80;34.33
65013;BME280;51715;39.432;-77.518;2023-08-01T02:06:27;99802.05;;;24.96;34.49
65013;BME280;51715;39.432;-77.518;2023-08-01T02:08:56;99803.29;;;24.58;34.48
65013;BME280;51715;39.432;-77.518;2023-08-01T02:11:23;99803.13;;;24.96;34.33
65013;BME280;51715;39.432;-77.518;2023-08-01T02:13:52;99805.73;;;24.68;34.16
65013;BME280;51715;39.432;-77.518;2023-08-01T02:16:20;99811.07;;;24.83;34.07
65013;BME280;51715;39.432;-77.518;2023-08-01T02:18:50;99811.96;;;24.42;34.11
65013;BME280;51715;39.432;-77.518;2023-08-01T02:21:18;99812.29;;;24.35;34.57
65013;BME280;51715;39.432;-77.518;2023-08-01T02:23:46;99813.21;;;24.53;34.37
65013;BME280;51715;39.432;-77.518;2023-08-01T02:26:15;99816.59;;;24.42;34.24
65013;BME280;51715;39.432;-77.518;2023-08-01T02:28:44;99817.88;;;24.11;34.13
65013;BME280;51715;39.432;-77.518;2023-08-01T02:31:12;99819.40;;;24.37;33.59
65013;BME280;51715;39.432;-77.518;2023-08-01T02:33:40;99818.48;;;24.11;33.62
65013;BME280;51715;39.432;-77.518;2023-08-01T02:36:09;99823.51;;;24.14;34.15
65013;BME280;51715;39.432;-77.518;2023-08-01T02:38:37;99826.33;;;24.14;34.28
65013;BME280;51715;39.432;-77.518;2023-08-01T02:41:06;99825.39;;;24.32;34.35
65013;BME280;51715;39.432;-77.518;2023-08-01T02:43:34;99826.97;;;24.07;34.19
65013;BME280;51715;39.432;-77.518;2023-08-01T02:46:03;99827.56;;;23.90;34.43
65013;BME280;51715;39.432;-77.518;2023-08-01T02:48:32;99828.78;;;24.05;34.54
65013;BME280;51715;39.432;-77.518;2023-08-01T02:51:00;99826.45;;;23.93;34.70
65013;BME280;51715;39.432;-77.518;2023-08-01T02:53:29;99830.54;;;23.84;34.73
65013;BME280;51715;39.432;-77.518;2023-08-01T02:55:57;99830.83;;;23.96;35.11
65013;BME280;51715;39.432;-77.518;2023-08-01T02:58:25;99833.22;;;23.86;35.10
65013;BME280;51715;39.432;-77.518;2023-08-01T03:00:55;99835.65;;;23.81;35.21
65013;BME280;51715;39.432;-77.518;2023-08-01T03:03:24;99836.65;;;23.96;35.43
65013;BME280;51715;39.432;-77.518;2023-08-01T03:05:52;99841.41;;;23.87;35.63
65013;BME280;51715;39.432;-77.518;2023-08-01T03:08:20;99842.48;;;23.77;35.64
65013;BME280;51715;39.432;-77.518;2023-08-01T03:10:48;99845.95;;;23.64;35.60
65013;BME280;51715;39.432;-77.518;2023-08-01T03:13:16;99848.16;;;23.52;35.88
65013;BME280;51715;39.432;-77.518;2023-08-01T03:15:45;99853.73;;;23.42;35.81
65013;BME280;51715;39.432;-77.518;2023-08-01T03:18:13;99856.31;;;23.38;35.99
65013;BME280;51715;39.432;-77.518;2023-08-01T03:20:41;99858.93;;;23.33;36.13
65013;BME280;51715;39.432;-77.518;2023-08-01T03:23:10;99856.80;;;23.30;36.26
65013;BME280;51715;39.432;-77.518;2023-08-01T03:25:38;99860.74;;;23.29;35.94
65013;BME280;51715;39.432;-77.518;2023-08-01T03:28:07;99856.29;;;23.25;35.70
65013;BME280;51715;39.432;-77.518;2023-08-01T03:30:35;99858.80;;;23.24;35.93
65013;BME280;51715;39.432;-77.518;2023-08-01T03:33:04;99856.95;;;23.00;36.24
65013;BME280;51715;39.432;-77.518;2023-08-01T03:35:32;99857.27;;;23.02;36.14
65013;BME280;51715;39.432;-77.518;2023-08-01T03:38:01;99854.20;;;22.98;36.57
65013;BME280;51715;39.432;-77.518;2023-08-01T03:40:30;99855.80;;;23.25;36.35
65013;BME280;51715;39.432;-77.518;2023-08-01T03:42:58;99857.21;;;23.22;36.57
65013;BME280;51715;39.432;-77.518;2023-08-01T03:45:26;99853.84;;;23.20;36.58
65013;BME280;51715;39.432;-77.518;2023-08-01T03:47:54;99858.20;;;22.93;36.30
65013;BME280;51715;39.432;-77.518;2023-08-01T03:50:22;99859.50;;;23.11;36.58
65013;BME280;51715;39.432;-77.518;2023-08-01T03:52:50;99859.31;;;23.05;36.37
65013;BME280;51715;39.432;-77.518;2023-08-01T03:55:19;99857.92;;;22.96;36.54
65013;BME280;51715;39.432;-77.518;2023-08-01T03:57:47;99857.56;;;22.88;36.62
65013;BME280;51715;39.432;-77.518;2023-08-01T04:03:55;99858.58;;;22.67;35.80
65013;BME280;51715;39.432;-77.518;2023-08-01T04:06:23;99855.58;;;22.85;35.77
65013;BME280;51715;39.432;-77.518;2023-08-01T04:08:52;99858.10;;;22.89;35.91
65013;BME280;51715;39.432;-77.518;2023-08-01T04:11:20;99858.60;;;23.16;35.99
65013;BME280;51715;39.432;-77.518;2023-08-01T04:13:48;99861.98;;;23.00;36.33
65013;BME280;51715;39.432;-77.518;2023-08-01T04:16:16;99866.11;;;23.06;36.25
65013;BME280;51715;39.432;-77.518;2023-08-01T04:18:44;99867.07;;;22.91;36.60
65013;BME280;51715;39.432;-77.518;2023-08-01T04:21:14;99866.68;;;22.81;36.64
65013;BME280;51715;39.432;-77.518;2023-08-01T04:23:42;99864.63;;;22.67;36.97
65013;BME280;51715;39.432;-77.518;2023-08-01T04:26:10;99862.83;;;23.04;36.92
65013;BME280;51715;39.432;-77.518;2023-08-01T04:28:38;99859.78;;;22.54;36.99
65013;BME280;51715;39.432;-77.518;2023-08-01T04:31:07;99860.42;;;22.68;36.92
65013;BME280;51715;39.432;-77.518;2023-08-01T04:33:35;99859.87;;;22.46;36.97
65013;BME280;51715;39.432;-77.518;2023-08-01T04:36:03;99858.21;;;22.44;36.98
65013;BME280;51715;39.432;-77.518;2023-08-01T04:38:32;99858.73;;;22.71;36.82
65013;BME280;51715;39.432;-77.518;2023-08-01T04:41:00;99862.20;;;22.58;36.62
65013;BME280;51715;39.432;-77.518;2023-08-01T04:43:28;99860.55;;;22.61;36.70
65013;BME280;51715;39.432;-77.518;2023-08-01T04:45:56;99859.15;;;22.60;36.71
65013;BME280;51715;39.432;-77.518;2023-08-01T04:48:23;99860.64;;;22.25;36.92
65013;BME280;51715;39.432;-77.518;2023-08-01T04:50:51;99860.95;;;22.46;36.88
65013;BME280;51715;39.432;-77.518;2023-08-01T04:53:19;99857.93;;;22.45;37.13
65013;BME280;51715;39.432;-77.518;2023-08-01T04:55:47;99858.72;;;22.78;37.40
65013;BME280;51715;39.432;-77.518;2023-08-01T04:58:16;99857.69;;;22.78;37.03
65013;BME280;51715;39.432;-77.518;2023-08-01T05:00:44;99860.16;;;22.55;37.27
65013;BME280;51715;39.432;-77.518;2023-08-01T05:03:12;99858.36;;;22.55;37.30
65013;BME280;51715;39.432;-77.518;2023-08-01T05:05:41;99859.58;;;22.51;37.23
65013;BME280;51715;39.432;-77.518;2023-08-01T05:08:10;99858.91;;;22.46;37.25
65013;BME280;51715;39.432;-77.518;2023-08-01T05:10:38;99860.90;;;22.57;37.20
65013;BME280;51715;39.432;-77.518;2023-08-01T05:13:06;99866.00;;;22.35;37.74
65013;BME280;51715;39.432;-77.518;2023-08-01T05:15:34;99861.72;;;22.23;37.92
65013;BME280;51715;39.432;-77.518;2023-08-01T05:18:02;99859.74;;;22.20;37.85
65013;BME280;51715;39.432;-77.518;2023-08-01T05:20:29;99860.33;;;22.17;37.91
65013;BME280;51715;39.432;-77.518;2023-08-01T05:22:58;99858.05;;;21.91;37.98
65013;BME280;51715;39.432;-77.518;2023-08-01T05:25:25;99857.44;;;21.94;38.08
65013;BME280;51715;39.432;-77.518;2023-08-01T05:27:53;99854.88;;;21.94;38.04
65013;BME280;51715;39.432;-77.518;2023-08-01T05:30:21;99856.35;;;21.88;38.28
65013;BME280;51715;39.432;-77.518;2023-08-01T05:32:49;99856.28;;;22.05;38.33
65013;BME280;51715;39.432;-77.518;2023-08-01T05:35:17;99861.77;;;22.28;38.25
65013;BME280;51715;39.432;-77.518;2023-08-01T05:37:45;99864.22;;;21.86;38.11
65013;BME280;51715;39.432;-77.518;2023-08-01T05:40:13;99860.44;;;22.22;37.99
65013;BME280;51715;39.432;-77.518;2023-08-01T05:42:41;99858.98;;;22.16;38.40
65013;BME280;51715;39.432;-77.518;2023-08-01T05:45:10;99857.48;;;22.14;38.48
65013;BME280;51715;39.432;-77.518;2023-08-01T05:47:38;99856.10;;;22.08;38.76
65013;BME280;51715;39.432;-77.518;2023-08-01T05:50:07;99857.54;;;22.07;38.48
65013;BME280;51715;39.432;-77.518;2023-08-01T05:52:35;99855.61;;;21.81;38.83
65013;BME280;51715;39.432;-77.518;2023-08-01T05:55:04;99854.07;;;22.06;38.77
65013;BME280;51715;39.432;-77.518;2023-08-01T05:57:32;99855.50;;;22.09;38.70
65013;BME280;51715;39.432;-77.518;2023-08-01T06:00:01;99855.74;;;22.07;38.82
65013;BME280;51715;39.432;-77.518;2023-08-01T06:02:30;99854.03;;;22.09;38.74
65013;BME280;51715;39.432;-77.518;2023-08-01T06:04:58;99850.72;;;21.88;38.87
65013;BME280;51715;39.432;-77.518;2023-08-01T06:07:26;99848.67;;;22.08;38.76
65013;BME280;51715;39.432;-77.518;2023-08-01T06:09:55;99847.55;;;22.11;38.74
65013;BME280;51715;39.432;-77.518;2023-08-01T06:12:22;99847.14;;;21.95;38.49
65013;BME280;51715;39.432;-77.518;2023-08-01T06:14:50;99851.23;;;21.98;38.46
65013;BME280;51715;39.432;-77.518;2023-08-01T06:17:19;99848.75;;;22.20;38.36
65013;BME280;51715;39.432;-77.518;2023-08-01T06:19:46;99847.49;;;21.99;38.63
65013;BME280;51715;39.432;-77.518;2023-08-01T06:22:15;99848.40;;;22.21;38.65
65013;BME280;51715;39.432;-77.518;2023-08-01T06:24:43;99849.35;;;22.22;38.93
65013;BME280;51715;39.432;-77.518;2023-08-01T06:27:11;99851.65;;;22.16;38.96
65013;BME280;51715;39.432;-77.518;2023-08-01T06:29:39;99849.12;;;21.98;39.29
65013;BME280;51715;39.432;-77.518;2023-08-01T06:32:07;99848.29;;;21.75;39.57
65013;BME280;51715;39.432;-77.518;2023-08-01T06:34:35;99852.25;;;21.70;39.52
65013;BME280;51715;39.432;-77.518;2023-08-01T06:37:03;99850.61;;;21.55;39.53
65013;BME280;51715;39.432;-77.518;2023-08-01T06:39:31;99849.78;;;21.54;39.57
65013;BME280;51715;39.432;-77.518;2023-08-01T06:41:59;99847.56;;;21.62;39.48
65013;BME280;51715;39.432;-77.518;2023-08-01T06:44:27;99846.24;;;21.70;40.03
65013;BME280;51715;39.432;-77.518;2023-08-01T06:46:56;99848.77;;;21.76;39.82
65013;BME280;51715;39.432;-77.518;2023-08-01T06:49:24;99847.32;;;21.80;39.57
65013;BME280;51715;39.432;-77.518;2023-08-01T06:51:53;99849.90;;;21.89;39.42
65013;BME280;51715;39.432;-77.518;2023-08-01T06:54:22;99848.44;;;21.79;39.15
65013;BME280;51715;39.432;-77.518;2023-08-01T06:56:50;99849.12;;;21.91;38.73
65013;BME280;51715;39.432;-77.518;2023-08-01T06:59:18;99845.36;;;22.27;38.74
65013;BME280;51715;39.432;-77.518;2023-08-01T07:01:46;99847.26;;;22.17;39.20
65013;BME280;51715;39.432;-77.518;2023-08-01T07:04:14;99848.19;;;22.30;39.57
65013;BME280;51715;39.432;-77.518;2023-08-01T07:06:43;99852.58;;;22.16;39.75
65013;BME280;51715;39.432;-77.518;2023-08-01T07:09:11;99853.98;;;22.24;38.56
65013;BME280;51715;39.432;-77.518;2023-08-01T07:11:38;99858.08;;;22.28;39.05
65013;BME280;51715;39.432;-77.518;2023-08-01T07:14:06;99858.57;;;22.69;39.42
65013;BME280;51715;39.432;-77.518;2023-08-01T07:16:34;99862.81;;;22.50;38.95
65013;BME280;51715;39.432;-77.518;2023-08-01T07:19:02;99868.23;;;22.35;39.20
65013;BME280;51715;39.432;-77.518;2023-08-01T07:21:31;99860.48;;;22.44;38.62
65013;BME280;51715;39.432;-77.518;2023-08-01T07:23:59;99863.89;;;22.48;38.03
65013;BME280;51715;39.432;-77.518;2023-08-01T07:26:26;99869.51;;;22.50;37.99
65013;BME280;51715;39.432;-77.518;2023-08-01T07:28:56;99871.35;;;22.70;38.64
65013;BME280;51715;39.432;-77.518;2023-08-01T07:31:25;99872.06;;;21.98;38.74
65013;BME280;51715;39.432;-77.518;2023-08-01T07:33:53;99867.82;;;22.26;38.39
65013;BME280;51715;39.432;-77.518;2023-08-01T07:36:21;99868.27;;;22.44;38.62
65013;BME280;51715;39.432;-77.518;2023-08-01T07:38:49;99868.80;;;22.25;38.68
65013;BME280;51715;39.432;-77.518;2023-08-01T07:41:18;99868.84;;;22.25;38.87
65013;BME280;51715;39.432;-77.518;2023-08-01T07:43:46;99866.87;;;22.49;38.98
65013;BME280;51715;39.432;-77.518;2023-08-01T07:46:15;99868.74;;;22.25;39.36
65013;BME280;51715;39.432;-77.518;2023-08-01T07:48:43;99876.40;;;22.25;39.39
65013;BME280;51715;39.432;-77.518;2023-08-01T07:51:11;99880.11;;;22.02;39.20
65013;BME280;51715;39.432;-77.518;2023-08-01T07:53:40;99881.23;;;22.34;39.14
65013;BME280;51715;39.432;-77.518;2023-08-01T07:56:08;99882.72;;;21.96;39.79
65013;BME280;51715;39.432;-77.518;2023-08-01T07:58:36;99887.59;;;21.96;39.86
65013;BME280;51715;39.432;-77.518;2023-08-01T08:01:04;99891.89;;;21.72;40.18
65013;BME280;51715;39.432;-77.518;2023-08-01T08:03:33;99894.05;;;21.98;39.83
65013;BME280;51715;39.432;-77.518;2023-08-01T08:06:01;99892.76;;;20.89;41.66
65013;BME280;51715;39.432;-77.518;2023-08-01T08:08:29;99892.18;;;20.54;42.57
65013;BME280;51715;39.432;-77.518;2023-08-01T08:10:58;99893.35;;;21.04;41.84
65013;BME280;51715;39.432;-77.518;2023-08-01T08:13:26;99897.32;;;20.82;42.18
65013;BME280;51715;39.432;-77.518;2023-08-01T08:15:56;99892.94;;;20.90;42.67
65013;BME280;51715;39.432;-77.518;2023-08-01T08:18:24;99900.37;;;21.02;42.34
65013;BME280;51715;39.432;-77.518;2023-08-01T08:20:53;99900.78;;;20.94;41.98
65013;BME280;51715;39.432;-77.518;2023-08-01T08:23:21;99901.77;;;21.00;42.13
65013;BME280;51715;39.432;-77.518;2023-08-01T08:25:49;99902.84;;;20.88;41.79
65013;BME280;51715;39.432;-77.518;2023-08-01T08:28:28;99902.83;;;21.28;41.45
65013;BME280;51715;39.432;-77.518;2023-08-01T08:30:57;99902.17;;;21.36;41.29
65013;BME280;51715;39.432;-77.518;2023-08-01T08:33:25;99906.35;;;21.15;41.17
65013;BME280;51715;39.432;-77.518;2023-08-01T08:35:54;99908.46;;;21.39;40.96
65013;BME280;51715;39.432;-77.518;2023-08-01T08:38:22;99907.52;;;21.28;40.89
65013;BME280;51715;39.432;-77.518;2023-08-01T08:41:01;99910.75;;;21.25;40.79
65013;BME280;51715;39.432;-77.518;2023-08-01T08:43:32;99916.70;;;21.63;40.71
65013;BME280;51715;39.432;-77.518;2023-08-01T08:46:02;99912.39;;;21.55;40.46
65013;BME280;51715;39.432;-77.518;2023-08-01T08:48:31;99915.50;;;21.19;40.88
65013;BME280;51715;39.432;-77.518;2023-08-01T08:51:01;99919.25;;;21.47;40.72
65013;BME280;51715;39.432;-77.518;2023-08-01T08:53:31;99924.85;;;21.66;41.00
65013;BME280;51715;39.432;-77.518;2023-08-01T08:56:00;99923.85;;;21.48;40.76
65013;BME280;51715;39.432;-77.518;2023-08-01T08:58:30;99931.04;;;21.56;40.34
65013;BME280;51715;39.432;-77.518;2023-08-01T09:00:59;99932.87;;;21.61;40.06
65013;BME280;51715;39.432;-77.518;2023-08-01T09:03:28;99935.86;;;21.68;39.78
65013;BME280;51715;39.432;-77.518;2023-08-01T09:06:02;99936.03;;;21.72;39.97
65013;BME280;51715;39.432;-77.518;2023-08-01T09:08:34;99936.28;;;21.74;39.91
65013;BME280;51715;39.432;-77.518;2023-08-01T09:11:03;99941.89;;;22.00;39.79
65013;BME280;51715;39.432;-77.518;2023-08-01T09:13:31;99944.24;;;22.02;40.01
65013;BME280;51715;39.432;-77.518;2023-08-01T09:15:59;99948.09;;;21.77;39.95
65013;BME280;51715;39.432;-77.518;2023-08-01T09:18:29;99950.47;;;21.74;40.08
65013;BME280;51715;39.432;-77.518;2023-08-01T09:20:59;99955.35;;;21.97;40.10
65013;BME280;51715;39.432;-77.518;2023-08-01T09:23:28;99959.12;;;21.89;40.43
65013;BME280;51715;39.432;-77.518;2023-08-01T09:25:56;99961.83;;;21.56;40.40
65013;BME280;51715;39.432;-77.518;2023-08-01T09:28:24;99962.02;;;21.41;40.57
65013;BME280;51715;39.432;-77.518;2023-08-01T09:30:54;99961.71;;;21.38;40.43
65013;BME280;51715;39.432;-77.518;2023-08-01T09:33:23;99959.85;;;21.41;40.45
65013;BME280;51715;39.432;-77.518;2023-08-01T09:35:52;99962.20;;;21.86;40.33
65013;BME280;51715;39.432;-77.518;2023-08-01T09:38:21;99961.56;;;21.33;40.25
65013;BME280;51715;39.432;-77.518;2023-08-01T09:40:48;99961.58;;;21.55;40.43
65013;BME280;51715;39.432;-77.518;2023-08-01T09:43:16;99960.73;;;21.28;40.46
65013;BME280;51715;39.432;-77.518;2023-08-01T09:45:52;99960.60;;;21.43;40.61
65013;BME280;51715;39.432;-77.518;2023-08-01T09:48:25;99961.56;;;21.30;40.82
65013;BME280;51715;39.432;-77.518;2023-08-01T09:51:04;99958.48;;;21.41;41.06
65013;BME280;51715;39.432;-77.518;2023-08-01T09:53:34;99965.50;;;21.38;41.32
65013;BME280;51715;39.432;-77.518;2023-08-01T09:56:03;99968.24;;;21.20;40.86
65013;BME280;51715;39.432;-77.518;2023-08-01T09:58:33;99970.81;;;21.42;40.73
65013;BME280;51715;39.432;-77.518;2023-08-01T10:01:02;99971.86;;;21.21;40.54
65013;BME280;51715;39.432;-77.518;2023-08-01T10:03:30;99977.48;;;21.18;40.70
65013;BME280;51715;39.432;-77.518;2023-08-01T10:05:58;99976.62;;;21.13;40.89
65013;BME280;51715;39.432;-77.518;2023-08-01T10:08:26;99980.77;;;21.03;41.02
65013;BME280;51715;39.432;-77.518;2023-08-01T10:10:56;99985.83;;;21.13;41.25
65013;BME280;51715;39.432;-77.518;2023-08-01T10:13:24;99989.28;;;20.92;41.67
65013;BME280;51715;39.432;-77.518;2023-08-01T10:15:55;99992.77;;;20.88;41.66
65013;BME280;51715;39.432;-77.518;2023-08-01T10:18:24;99997.07;;;20.81;41.88
65013;BME280;51715;39.432;-77.518;2023-08-01T10:20:52;100001.60;;;20.81;41.85
65013;BME280;51715;39.432;-77.518;2023-08-01T10:23:21;100006.05;;;20.77;41.99
65013;BME280;51715;39.432;-77.518;2023-08-01T10:25:50;100008.82;;;20.80;41.82
65013;BME280;51715;39.432;-77.518;2023-08-01T10:28:19;100012.10;;;20.80;41.81
65013;BME280;51715;39.432;-77.518;2023-08-01T10:31:08;100015.09;;;20.82;41.99
65013;BME280;51715;39.432;-77.518;2023-08-01T10:33:36;100022.69;;;20.92;42.00
65013;BME280;51715;39.432;-77.518;2023-08-01T10:36:13;100034.49;;;20.95;41.48
65013;BME280;51715;39.432;-77.518;2023-08-01T10:38:51;100038.67;;;21.09;41.45
65013;BME280;51715;39.432;-77.518;2023-08-01T10:41:21;100043.47;;;21.08;41.52
65013;BME280;51715;39.432;-77.518;2023-08-01T10:43:49;100049.73;;;21.09;41.54
65013;BME280;51715;39.432;-77.518;2023-08-01T10:46:17;100053.77;;;21.04;41.49
65013;BME280;51715;39.432;-77.518;2023-08-01T10:48:50;100059.42;;;21.00;41.56
65013;BME280;51715;39.432;-77.518;2023-08-01T10:51:19;100060.85;;;20.96;42.00
65013;BME280;51715;39.432;-77.518;2023-08-01T10:53:47;100062.01;;;20.80;41.82
65013;BME280;51715;39.432;-77.518;2023-08-01T10:56:18;100067.27;;;21.06;42.01
65013;BME280;51715;39.432;-77.518;2023-08-01T10:58:47;100072.60;;;20.86;41.85
65013;BME280;51715;39.432;-77.518;2023-08-01T11:01:15;100075.74;;;21.13;41.85
65013;BME280;51715;39.432;-77.518;2023-08-01T11:03:44;100080.91;;;20.97;41.84
65013;BME280;51715;39.432;-77.518;2023-08-01T11:06:12;100088.83;;;21.23;41.92
65013;BME280;51715;39.432;-77.518;2023-08-01T11:08:40;100098.30;;;21.09;41.88
65013;BME280;51715;39.432;-77.518;2023-08-01T11:11:12;100103.68;;;21.11;41.96
65013;BME280;51715;39.432;-77.518;2023-08-01T11:13:49;100111.57;;;21.14;42.44
65013;BME280;51715;39.432;-77.518;2023-08-01T11:16:17;100114.64;;;21.51;42.29
65013;BME280;51715;39.432;-77.518;2023-08-01T11:18:46;100113.81;;;21.12;42.23
65013;BME280;51715;39.432;-77.518;2023-08-01T11:21:25;100110.55;;;21.45;42.20
65013;BME280;51715;39.432;-77.518;2023-08-01T11:23:54;100112.08;;;21.34;41.96
65013;BME280;51715;39.432;-77.518;2023-08-01T11:26:24;100113.88;;;21.43;41.83
65013;BME280;51715;39.432;-77.518;2023-08-01T11:28:53;100114.98;;;21.56;41.92
65013;BME280;51715;39.432;-77.518;2023-08-01T11:31:21;100112.54;;;21.72;42.01
65013;BME280;51715;39.432;-77.518;2023-08-01T11:33:56;100111.13;;;21.83;42.22
65013;BME280;51715;39.432;-77.518;2023-08-01T11:36:27;100109.31;;;22.00;42.02
65013;BME280;51715;39.432;-77.518;2023-08-01T11:38:57;100110.77;;;22.11;41.97
65013;BME280;51715;39.432;-77.518;2023-08-01T11:41:26;100111.40;;;22.02;41.66
65013;BME280;51715;39.432;-77.518;2023-08-01T11:43:55;100112.70;;;22.32;41.79
65013;BME280;51715;39.432;-77.518;2023-08-01T11:46:32;100113.10;;;22.28;41.82
65013;BME280;51715;39.432;-77.518;2023-08-01T11:49:00;100112.48;;;22.43;41.23
65013;BME280;51715;39.432;-77.518;2023-08-01T11:51:28;100116.60;;;22.32;41.68
65013;BME280;51715;39.432;-77.518;2023-08-01T11:54:01;100118.03;;;22.74;41.24
65013;BME280;51715;39.432;-77.518;2023-08-01T11:56:30;100120.40;;;22.74;40.17
65013;BME280;51715;39.432;-77.518;2023-08-01T11:58:58;100121.23;;;22.89;40.62
65013;BME280;51715;39.432;-77.518;2023-08-01T12:01:26;100123.75;;;23.03;40.11
65013;BME280;51715;39.432;-77.518;2023-08-01T12:03:55;100121.45;;;22.87;39.83
65013;BME280;51715;39.432;-77.518;2023-08-01T12:06:23;100122.94;;;22.82;39.94
65013;BME280;51715;39.432;-77.518;2023-08-01T12:08:53;100123.61;;;23.27;39.77
65013;BME280;51715;39.432;-77.518;2023-08-01T12:11:23;100129.21;;;23.20;39.70
65013;BME280;51715;39.432;-77.518;2023-08-01T12:14:09;100132.73;;;23.37;38.26
65013;BME280;51715;39.432;-77.518;2023-08-01T12:16:39;100131.71;;;23.76;38.53
65013;BME280;51715;39.432;-77.518;2023-08-01T12:19:08;100136.58;;;23.63;38.89
65013;BME280;51715;39.432;-77.518;2023-08-01T12:21:37;100135.63;;;23.60;38.42
65013;BME280;51715;39.432;-77.518;2023-08-01T12:24:05;100139.40;;;23.59;38.20
65013;BME280;51715;39.432;-77.518;2023-08-01T12:26:34;100137.33;;;23.99;39.04
65013;BME280;51715;39.432;-77.518;2023-08-01T12:29:02;100138.38;;;24.15;38.83
65013;BME280;51715;39.432;-77.518;2023-08-01T12:31:30;100141.75;;;24.33;37.92
65013;BME280;51715;39.432;-77.518;2023-08-01T12:33:58;100141.02;;;24.48;38.17
65013;BME280;51715;39.432;-77.518;2023-08-01T12:36:26;100142.51;;;24.47;37.40
65013;BME280;51715;39.432;-77.518;2023-08-01T12:38:55;100142.57;;;24.61;37.19
65013;BME280;51715;39.432;-77.518;2023-08-01T12:41:23;100145.09;;;24.99;37.34
65013;BME280;51715;39.432;-77.518;2023-08-01T12:43:51;100144.92;;;24.63;36.34
65013;BME280;51715;39.432;-77.518;2023-08-01T12:46:18;100150.96;;;24.75;36.43
65013;BME280;51715;39.432;-77.518;2023-08-01T12:48:47;100150.15;;;24.90;36.84
65013;BME280;51715;39.432;-77.518;2023-08-01T12:51:15;100150.79;;;24.86;36.31